Time;durP1;ratioP1;P1;durP2;ratioP2;P2;SDS_P1;SDS_P2;PMS_P1;PMS_P2;Temp;Humidity;BMP_temperature;BMP_pressure;BME280_temperature;BME280_humidity;BME280_pressure;Samples;Min_cycle;Max_cycle;Signal;HPM_P1;HPM_P2
2021/07/13 00:01:18;;;;;;;;;;;;;;;;;;5037273;28;20444;-67
2021/07/13 00:03:44;;;;;;;;;;;;;;;;;;5038838;28;20386;-67
2021/07/13 00:06:09;;;;;;;;;;;;;;;;;;5042819;28;20448;-67
2021/07/13 00:08:34;;;;;;;;;;;;;;;;;;5052038;28;19917;-68
2021/07/13 00:10:59;;;;;;;;;;;;;;;;;;5039795;28;19917;-67
2021/07/13 00:13:25;;;;;;;;;;;;;;;;;;5034101;28;20195;-67
2021/07/13 00:15:50;;;;;;;;;;;;;;;;;;5034294;28;19920;-68
2021/07/13 00:18:16;;;;;;;;;;;;;;;;;;5034269;28;19920;-68
2021/07/13 00:20:41;;;;;;;;;;;;;;;;;;5034681;28;19964;-67
2021/07/13 00:23:07;;;;;;;;;;;;;;;;;;5041866;28;19917;-67
2021/07/13 00:25:32;;;;;;;;;;;;;;;;;;5033939;28;19913;-67
2021/07/13 00:27:58;;;;;;;;;;;;;;;;;;5043146;28;20087;-67
2021/07/13 00:30:23;;;;;;;;;;;;;;;;;;5039454;28;19984;-67
2021/07/13 00:32:49;;;;;;;;;;;;;;;;;;5033410;28;20152;-67
2021/07/13 00:35:15;;;;;;;;;;;;;;;;;;5034227;28;20412;-67
2021/07/13 00:37:42;;;;;;;;;;;;;;;;;;5033700;28;20281;-67
2021/07/13 00:40:07;;;;;;;;;;;;;;;;;;5034075;28;20291;-68
2021/07/13 00:42:33;;;;;;;;;;;;;;;;;;5037313;28;19924;-67
2021/07/13 00:44:58;;;;;;;;;;;;;;;;;;5033674;28;19913;-67
2021/07/13 00:47:25;;;;;;;;;;;;;;;;;;5033499;28;19986;-65
2021/07/13 00:49:50;;;;;;;;;;;;;;;;;;5039908;28;19917;-68
2021/07/13 00:52:15;;;;;;;;;;;;;;;;;;5031064;28;19924;-67
2021/07/13 00:54:41;;;;;;;;;;;;;;;;;;5053194;28;19952;-67
2021/07/13 00:57:07;;;;;;;;;;;;;;;;;;5034196;28;19959;-66
2021/07/13 00:59:32;;;;;;;;;;;;;;;;;;5034211;28;19971;-67
2021/07/13 01:01:58;;;;;;;;;;;;;;;;;;5035934;28;19924;-67
2021/07/13 01:04:23;;;;;;;;;;;;;;;;;;5033272;28;19913;-68
2021/07/13 01:06:48;;;;;;;;;;;;;;;;;;5033873;28;19917;-66
2021/07/13 01:09:18;;;;;;;;;;;;;;;;;;5041474;28;19924;-67
2021/07/13 01:11:47;;;;;;;;;;;;;;;;;;5034679;28;19991;-68
2021/07/13 01:14:26;;;;;;;;;;;;;;;;;;5034798;28;19956;-67
2021/07/13 01:16:55;;;;;;;;;;;;;;;;;;5033250;28;19932;-67
2021/07/13 01:19:35;;;;;;;;;;;;;;;;;;5033475;28;19991;-68
2021/07/13 01:22:13;;;;;;;;;;;;;;;;;;5033151;28;19917;-67
2021/07/13 01:24:46;;;;;;;;;;;;;;;;;;5027321;28;20298;-67
2021/07/13 01:27:30;;;;;;;;;;;;;;;;;;5046234;28;19917;-67
2021/07/13 01:29:56;;;;;;;;;;;;;;;;;;5033143;28;20008;-66
2021/07/13 01:32:22;;;;;;;;;;;;;;;;;;5032651;28;20300;-67
2021/07/13 01:34:53;;;;;;;;;;;;;;;;;;5032930;28;19939;-68
2021/07/13 01:37:19;;;;;;;;;;;;;;;;;;5041072;28;19917;-67
2021/07/13 01:39:45;;;;;;;;;;;;;;;;;;5032700;28;19970;-67
2021/07/13 01:42:10;;;;;;;;;;;;;;;;;;5032565;28;20399;-67
2021/07/13 01:44:37;;;;;;;;;;;;;;;;;;5034189;28;19927;-67
2021/07/13 01:47:02;;;;;;;;;;;;;;;;;;5032520;28;19929;-68
2021/07/13 01:49:28;;;;;;;;;;;;;;;;;;5033419;28;20498;-66
2021/07/13 01:51:55;;;;;;;;;;;;;;;;;;5035912;28;20363;-67
2021/07/13 01:54:21;;;;;;;;;;;;;;;;;;5032055;28;19932;-67
2021/07/13 01:56:48;;;;;;;;;;;;;;;;;;5031385;28;19917;-68
2021/07/13 01:59:15;;;;;;;;;;;;;;;;;;5031077;28;20374;-67
2021/07/13 02:01:40;;;;;;;;;;;;;;;;;;5038557;28;19921;-67
2021/07/13 02:04:05;;;;;;;;;;;;;;;;;;5032179;28;20438;-67
2021/07/13 02:06:31;;;;;;;;;;;;;;;;;;5032820;28;20011;-67
2021/07/13 02:08:57;;;;;;;;;;;;;;;;;;5031868;28;19955;-68
2021/07/13 02:11:24;;;;;;;;;;;;;;;;;;5031318;28;19917;-67
2021/07/13 02:13:49;;;;;;;;;;;;;;;;;;5035792;28;19976;-67
2021/07/13 02:16:15;;;;;;;;;;;;;;;;;;5031818;28;19921;-67
2021/07/13 02:18:40;;;;;;;;;;;;;;;;;;5032202;28;20379;-67
2021/07/13 02:21:05;;;;;;;;;;;;;;;;;;5031759;28;19921;-67
2021/07/13 02:23:31;;;;;;;;;;;;;;;;;;5038786;28;19921;-68
2021/07/13 02:26:00;;;;;;;;;;;;;;;;;;5031925;28;19913;-67
2021/07/13 02:28:32;;;;;;;;;;;;;;;;;;5035924;28;19923;-68
2021/07/13 02:31:01;;;;;;;;;;;;;;;;;;5034504;28;19920;-67
2021/07/13 02:33:33;;;;;;;;;;;;;;;;;;5035808;28;19944;-67
2021/07/13 02:36:01;;;;;;;;;;;;;;;;;;5035141;28;19917;-67
2021/07/13 02:38:27;;;;;;;;;;;;;;;;;;5031782;28;19917;-67
2021/07/13 02:40:52;;;;;;;;;;;;;;;;;;5031693;28;19924;-67
2021/07/13 02:43:18;;;;;;;;;;;;;;;;;;5038550;28;19918;-67
2021/07/13 02:45:45;;;;;;;;;;;;;;;;;;5031878;28;20002;-67
2021/07/13 02:48:11;;;;;;;;;;;;;;;;;;5037938;28;19927;-66
2021/07/13 02:50:36;;;;;;;;;;;;;;;;;;5032183;28;19917;-67
2021/07/13 02:53:03;;;;;;;;;;;;;;;;;;5030656;28;19967;-67
2021/07/13 02:55:29;;;;;;;;;;;;;;;;;;5030465;28;19940;-68
2021/07/13 02:57:55;;;;;;;;;;;;;;;;;;5030456;28;19944;-69
2021/07/13 03:00:21;;;;;;;;;;;;;;;;;;5041564;28;19917;-67
2021/07/13 03:02:48;;;;;;;;;;;;;;;;;;5037100;28;19917;-67
2021/07/13 03:05:14;;;;;;;;;;;;;;;;;;5031548;28;19917;-67
2021/07/13 03:07:40;;;;;;;;;;;;;;;;;;5031272;28;19943;-67
2021/07/13 03:10:06;;;;;;;;;;;;;;;;;;5035326;28;20676;-67
2021/07/13 03:12:31;;;;;;;;;;;;;;;;;;5039260;28;19999;-67
2021/07/13 03:14:58;;;;;;;;;;;;;;;;;;5036067;28;19917;-67
2021/07/13 03:17:23;;;;;;;;;;;;;;;;;;5040298;28;19924;-65
2021/07/13 03:19:48;;;;;;;;;;;;;;;;;;5036375;28;20313;-67
2021/07/13 03:22:36;;;;;;;;;;;;;;;;;;5031673;28;19917;-66
2021/07/13 03:25:02;;;;;;;;;;;;;;;;;;5012177;28;20371;-67
2021/07/13 03:27:30;;;;;;;;;;;;;;;;;;5015489;28;19917;-66
2021/07/13 03:29:56;;;;;;;;;;;;;;;;;;5039572;28;19921;-66
2021/07/13 03:32:22;;;;;;;;;;;;;;;;;;5041296;28;19952;-67
2021/07/13 03:34:47;;;;;;;;;;;;;;;;;;5046725;28;19959;-67
2021/07/13 03:37:13;;;;;;;;;;;;;;;;;;5050505;28;19919;-67
2021/07/13 03:39:39;;;;;;;;;;;;;;;;;;5025573;28;20063;-67
2021/07/13 03:42:04;;;;;;;;;;;;;;;;;;5031025;28;19917;-68
2021/07/13 03:44:29;;;;;;;;;;;;;;;;;;5040014;28;20386;-67
2021/07/13 03:46:54;;;;;;;;;;;;;;;;;;5039972;28;20011;-68
2021/07/13 03:49:22;;;;;;;;;;;;;;;;;;5027919;28;20012;-67
2021/07/13 03:51:47;;;;;;;;;;;;;;;;;;5031024;28;19917;-67
2021/07/13 03:54:14;;;;;;;;;;;;;;;;;;5030790;28;19936;-68
2021/07/13 03:56:39;;;;;;;;;;;;;;;;;;5030893;28;20387;-68
2021/07/13 03:59:05;;;;;;;;;;;;;;;;;;5030744;28;19924;-67
2021/07/13 04:01:30;;;;;;;;;;;;;;;;;;5033423;28;19995;-67
2021/07/13 04:03:55;;;;;;;;;;;;;;;;;;5031080;28;19944;-67
2021/07/13 04:06:20;;;;;;;;;;;;;;;;;;5033023;28;19921;-66
2021/07/13 04:08:45;;;;;;;;;;;;;;;;;;5037099;28;19921;-66
2021/07/13 04:11:11;;;;;;;;;;;;;;;;;;5034484;28;20638;-67
2021/07/13 04:13:36;;;;;;;;;;;;;;;;;;5041173;28;20028;-67
2021/07/13 04:16:01;;;;;;;;;;;;;;;;;;5046063;28;19936;-68
2021/07/13 04:18:26;;;;;;;;;;;;;;;;;;5034147;28;20252;-67
2021/07/13 04:20:51;;;;;;;;;;;;;;;;;;5034026;28;20379;-68
2021/07/13 04:23:17;;;;;;;;;;;;;;;;;;5034492;28;19971;-67
2021/07/13 04:25:43;;;;;;;;;;;;;;;;;;5033156;28;19928;-67
2021/07/13 04:28:08;;;;;;;;;;;;;;;;;;5034147;28;19924;-67
2021/07/13 04:30:33;;;;;;;;;;;;;;;;;;5034526;28;19970;-67
2021/07/13 04:32:58;;;;;;;;;;;;;;;;;;5034525;28;19928;-67
2021/07/13 04:35:23;;;;;;;;;;;;;;;;;;5034160;28;19913;-67
2021/07/13 04:37:49;;;;;;;;;;;;;;;;;;5050262;28;19955;-67
2021/07/13 04:40:14;;;;;;;;;;;;;;;;;;5035970;28;19917;-67
2021/07/13 04:42:39;;;;;;;;;;;;;;;;;;5046779;28;19920;-67
2021/07/13 04:45:05;;;;;;;;;;;;;;;;;;5045525;28;20000;-67
2021/07/13 04:47:30;;;;;;;;;;;;;;;;;;5030734;28;20397;-67
2021/07/13 04:49:55;;;;;;;;;;;;;;;;;;5033922;28;19980;-67
2021/07/13 04:52:20;;;;;;;;;;;;;;;;;;5033931;28;20383;-67
2021/07/13 04:54:46;;;;;;;;;;;;;;;;;;5033488;28;19913;-67
2021/07/13 04:57:11;;;;;;;;;;;;;;;;;;5032092;28;19979;-66
2021/07/13 04:59:36;;;;;;;;;;;;;;;;;;5033335;28;19919;-67
2021/07/13 05:02:02;;;;;;;;;;;;;;;;;;5034115;28;19990;-67
2021/07/13 05:04:27;;;;;;;;;;;;;;;;;;5036808;28;20000;-66
2021/07/13 05:06:52;;;;;;;;;;;;;;;;;;5041902;28;20363;-67
2021/07/13 05:09:18;;;;;;;;;;;;;;;;;;5033120;28;20449;-69
2021/07/13 05:11:43;;;;;;;;;;;;;;;;;;5042115;28;20306;-67
2021/07/13 05:14:08;;;;;;;;;;;;;;;;;;5053002;28;20011;-66
2021/07/13 05:16:33;;;;;;;;;;;;;;;;;;5042629;28;19943;-67
2021/07/13 05:18:59;;;;;;;;;;;;;;;;;;5032213;28;19917;-68
2021/07/13 05:21:24;;;;;;;;;;;;;;;;;;5036695;28;20390;-68
2021/07/13 05:23:49;;;;;;;;;;;;;;;;;;5033226;28;19917;-67
2021/07/13 05:26:15;;;;;;;;;;;;;;;;;;5039856;28;19924;-68
2021/07/13 05:28:40;;;;;;;;;;;;;;;;;;5033802;28;19961;-67
2021/07/13 05:31:05;;;;;;;;;;;;;;;;;;5032758;28;19924;-67
2021/07/13 05:33:30;;;;;;;;;;;;;;;;;;5033298;28;19944;-67
2021/07/13 05:35:55;;;;;;;;;;;;;;;;;;5034449;28;20012;-67
2021/07/13 05:38:21;;;;;;;;;;;;;;;;;;5034514;28;20310;-68
2021/07/13 05:40:46;;;;;;;;;;;;;;;;;;5032519;28;20000;-67
2021/07/13 05:43:12;;;;;;;;;;;;;;;;;;5032559;28;20375;-67
2021/07/13 05:45:38;;;;;;;;;;;;;;;;;;5034355;28;20401;-67
2021/07/13 05:48:03;;;;;;;;;;;;;;;;;;5029632;28;19917;-68
2021/07/13 05:50:28;;;;;;;;;;;;;;;;;;5033636;28;19932;-66
2021/07/13 05:52:56;;;;;;;;;;;;;;;;;;5052227;28;20248;-67
2021/07/13 05:55:22;;;;;;;;;;;;;;;;;;5038670;28;19917;-67
2021/07/13 05:57:47;;;;;;;;;;;;;;;;;;5052046;28;19919;-67
2021/07/13 06:00:12;;;;;;;;;;;;;;;;;;5040139;28;19963;-67
2021/07/13 06:02:37;;;;;;;;;;;;;;;;;;5038935;28;19929;-67
2021/07/13 06:05:03;;;;;;;;;;;;;;;;;;5036064;28;20016;-67
2021/07/13 06:07:28;;;;;;;;;;;;;;;;;;5035656;28;19916;-67
2021/07/13 06:09:56;;;;;;;;;;;;;;;;;;5032462;28;19966;-68
2021/07/13 06:12:21;;;;;;;;;;;;;;;;;;5033326;28;19917;-67
2021/07/13 06:14:46;;;;;;;;;;;;;;;;;;5033369;28;19958;-67
2021/07/13 06:17:11;;;;;;;;;;;;;;;;;;5040304;28;19940;-67
2021/07/13 06:19:36;;;;;;;;;;;;;;;;;;5032256;28;19948;-67
2021/07/13 06:22:02;;;;;;;;;;;;;;;;;;5040324;28;19998;-69
2021/07/13 06:24:27;;;;;;;;;;;;;;;;;;5036042;28;19929;-67
2021/07/13 06:26:53;;;;;;;;;;;;;;;;;;5051713;28;19920;-67
2021/07/13 06:29:18;;;;;;;;;;;;;;;;;;5035035;28;19913;-68
2021/07/13 06:31:43;;;;;;;;;;;;;;;;;;5032061;28;19917;-66
2021/07/13 06:34:08;;;;;;;;;;;;;;;;;;5038464;28;19983;-67
2021/07/13 06:36:33;;;;;;;;;;;;;;;;;;5036364;28;19913;-67
2021/07/13 06:38:59;;;;;;;;;;;;;;;;;;5032227;28;19921;-67
2021/07/13 06:41:24;;;;;;;;;;;;;;;;;;5043535;28;19917;-67
2021/07/13 06:43:49;;;;;;;;;;;;;;;;;;5033220;28;19932;-67
2021/07/13 06:46:14;;;;;;;;;;;;;;;;;;5039306;28;19920;-67
2021/07/13 06:48:40;;;;;;;;;;;;;;;;;;5031159;28;19925;-66
2021/07/13 06:51:05;;;;;;;;;;;;;;;;;;5027874;28;20052;-69
2021/07/13 06:53:30;;;;;;;;;;;;;;;;;;5027144;28;19927;-69
2021/07/13 06:55:55;;;;;;;;;;;;;;;;;;5032036;28;21575;-68
2021/07/13 06:58:20;;;;;;;;;;;;;;;;;;5043393;28;19913;-69
2021/07/13 07:00:46;;;;;;;;;;;;;;;;;;5041017;28;19924;-67
2021/07/13 07:03:11;;;;;;;;;;;;;;;;;;5021267;28;20367;-68
2021/07/13 07:05:36;;;;;;;;;;;;;;;;;;5024421;28;19917;-68
2021/07/13 07:08:01;;;;;;;;;;;;;;;;;;5011068;28;19937;-68
2021/07/13 07:10:27;;;;;;;;;;;;;;;;;;5016492;28;19913;-68
2021/07/13 07:12:52;;;;;;;;;;;;;;;;;;5032058;28;19925;-68
2021/07/13 07:15:17;;;;;;;;;;;;;;;;;;5043383;28;19921;-70
2021/07/13 07:17:44;;;;;;;;;;;;;;;;;;5038558;28;19913;-66
2021/07/13 07:20:09;;;;;;;;;;;;;;;;;;5047557;28;19916;-67
2021/07/13 07:22:35;;;;;;;;;;;;;;;;;;5042205;28;19967;-67
2021/07/13 07:25:00;;;;;;;;;;;;;;;;;;5034502;28;19967;-67
2021/07/13 07:27:25;;;;;;;;;;;;;;;;;;5027769;28;21132;-67
2021/07/13 07:29:50;;;;;;;;;;;;;;;;;;5029093;28;20000;-66
2021/07/13 07:32:15;;;;;;;;;;;;;;;;;;5033505;28;20217;-68
2021/07/13 07:34:40;;;;;;;;;;;;;;;;;;5029827;28;19937;-68
2021/07/13 07:37:06;;;;;;;;;;;;;;;;;;5016800;28;19914;-68
2021/07/13 07:39:31;;;;;;;;;;;;;;;;;;5020671;28;19917;-68
2021/07/13 07:41:56;;;;;;;;;;;;;;;;;;5031581;28;21248;-66
2021/07/13 07:44:23;;;;;;;;;;;;;;;;;;5018383;28;19920;-68
2021/07/13 07:46:49;;;;;;;;;;;;;;;;;;5020298;28;19949;-68
2021/07/13 07:49:14;;;;;;;;;;;;;;;;;;5033985;28;19986;-66
2021/07/13 07:51:39;;;;;;;;;;;;;;;;;;5032500;28;20067;-68
2021/07/13 07:54:05;;;;;;;;;;;;;;;;;;5030661;28;20016;-65
2021/07/13 07:56:30;;;;;;;;;;;;;;;;;;5033542;28;20028;-68
2021/07/13 07:58:55;;;;;;;;;;;;;;;;;;5033698;28;19913;-67
2021/07/13 08:01:20;;;;;;;;;;;;;;;;;;5032578;28;19917;-67
2021/07/13 08:03:46;;;;;;;;;;;;;;;;;;5034007;28;19913;-66
2021/07/13 08:06:11;;;;;;;;;;;;;;;;;;5034235;28;19914;-68
2021/07/13 08:08:36;;;;;;;;;;;;;;;;;;5049130;28;19971;-68
2021/07/13 08:11:02;;;;;;;;;;;;;;;;;;5027634;28;19925;-68
2021/07/13 08:13:27;;;;;;;;;;;;;;;;;;5031247;28;20020;-67
2021/07/13 08:15:54;;;;;;;;;;;;;;;;;;5032398;28;19917;-67
2021/07/13 08:18:20;;;;;;;;;;;;;;;;;;5032367;28;19920;-68
2021/07/13 08:20:46;;;;;;;;;;;;;;;;;;5033116;28;19997;-67
2021/07/13 08:23:11;;;;;;;;;;;;;;;;;;5033406;28;19917;-66
2021/07/13 08:25:36;;;;;;;;;;;;;;;;;;5033250;28;19916;-67
2021/07/13 08:28:02;;;;;;;;;;;;;;;;;;5034396;28;19924;-66
2021/07/13 08:30:28;;;;;;;;;;;;;;;;;;5029665;28;19917;-67
2021/07/13 08:32:55;;;;;;;;;;;;;;;;;;5026075;28;19922;-67
2021/07/13 08:35:20;;;;;;;;;;;;;;;;;;5022870;28;19944;-67
2021/07/13 08:37:46;;;;;;;;;;;;;;;;;;5032538;28;20375;-68
2021/07/13 08:40:12;;;;;;;;;;;;;;;;;;5032556;28;19936;-67
2021/07/13 08:42:38;;;;;;;;;;;;;;;;;;5032260;28;19917;-66
2021/07/13 08:45:07;;;;;;;;;;;;;;;;;;5033005;28;19933;-68
2021/07/13 08:47:35;;;;;;;;;;;;;;;;;;5031964;28;20007;-64
2021/07/13 08:50:00;;;;;;;;;;;;;;;;;;5032769;28;19921;-68
2021/07/13 08:52:26;;;;;;;;;;;;;;;;;;5031689;28;19932;-67
2021/07/13 08:54:51;;;;;;;;;;;;;;;;;;5043115;28;19927;-67
2021/07/13 08:57:16;;;;;;;;;;;;;;;;;;5030706;28;19917;-67
2021/07/13 08:59:41;;;;;;;;;;;;;;;;;;5035712;28;20162;-67
2021/07/13 09:02:07;;;;;;;;;;;;;;;;;;5032930;28;20425;-67
2021/07/13 09:04:33;;;;;;;;;;;;;;;;;;5032255;28;19947;-68
2021/07/13 09:06:59;;;;;;;;;;;;;;;;;;5032331;28;19924;-65
2021/07/13 09:09:28;;;;;;;;;;;;;;;;;;5032599;28;19913;-68
2021/07/13 09:12:05;;;;;;;;;;;;;;;;;;5040145;28;19917;-67
2021/07/13 09:14:44;;;;;;;;;;;;;;;;;;5025799;28;19925;-67
2021/07/13 09:17:10;;;;;;;;;;;;;;;;;;5032431;28;20414;-66
2021/07/13 09:19:35;;;;;;;;;;;;;;;;;;5029712;28;19917;-68
2021/07/13 09:22:00;;;;;;;;;;;;;;;;;;5033028;28;19917;-69
2021/07/13 09:24:27;;;;;;;;;;;;;;;;;;5034133;28;19921;-70
2021/07/13 09:26:53;;;;;;;;;;;;;;;;;;5034622;28;19920;-69
2021/07/13 09:29:38;;;;;;;;;;;;;;;;;;5032799;28;20007;-68
2021/07/13 09:32:21;;;;;;;;;;;;;;;;;;5032673;28;19920;-68
2021/07/13 09:34:48;;;;;;;;;;;;;;;;;;5033198;28;19917;-68
2021/07/13 09:37:27;;;;;;;;;;;;;;;;;;5029797;28;19914;-68
2021/07/13 09:39:56;;;;;;;;;;;;;;;;;;5032754;28;20265;-69
2021/07/13 09:42:22;;;;;;;;;;;;;;;;;;5032543;28;20000;-68
2021/07/13 09:44:47;;;;;;;;;;;;;;;;;;5032568;28;20012;-68
2021/07/13 09:47:26;;;;;;;;;;;;;;;;;;5032440;28;19948;-68
2021/07/13 09:49:51;;;;;;;;;;;;;;;;;;5032898;28;19935;-69
2021/07/13 09:52:22;;;;;;;;;;;;;;;;;;5032195;28;20008;-69
2021/07/13 09:54:47;;;;;;;;;;;;;;;;;;5032312;28;19960;-69
2021/07/13 09:57:16;;;;;;;;;;;;;;;;;;5032052;28;19948;-68
2021/07/13 09:59:43;;;;;;;;;;;;;;;;;;5032213;28;20387;-69
2021/07/13 10:02:09;;;;;;;;;;;;;;;;;;5032184;28;19920;-68
2021/07/13 10:04:38;;;;;;;;;;;;;;;;;;5032175;28;19913;-69
2021/07/13 10:07:11;;;;;;;;;;;;;;;;;;5031997;28;19917;-69
2021/07/13 10:09:37;;;;;;;;;;;;;;;;;;5031870;28;19914;-69
2021/07/13 10:12:07;;;;;;;;;;;;;;;;;;5031900;28;19917;-69
2021/07/13 10:14:32;;;;;;;;;;;;;;;;;;5032518;28;19931;-69
2021/07/13 10:16:58;;;;;;;;;;;;;;;;;;5031991;28;20000;-69
2021/07/13 10:19:23;;;;;;;;;;;;;;;;;;5031889;28;19963;-69
2021/07/13 10:21:49;;;;;;;;;;;;;;;;;;5032190;28;20007;-69
2021/07/13 10:24:15;;;;;;;;;;;;;;;;;;5031596;28;19913;-69
2021/07/13 10:26:48;;;;;;;;;;;;;;;;;;5032416;28;19921;-69
2021/07/13 10:29:28;;;;;;;;;;;;;;;;;;5031369;28;19992;-69
2021/07/13 10:31:53;;;;;;;;;;;;;;;;;;5031618;28;20011;-69
2021/07/13 10:34:37;;;;;;;;;;;;;;;;;;5028496;28;20012;-69
2021/07/13 10:37:21;;;;;;;;;;;;;;;;;;5031768;28;20414;-68
2021/07/13 10:39:46;;;;;;;;;;;;;;;;;;5031553;28;19913;-69
2021/07/13 10:42:31;;;;;;;;;;;;;;;;;;5031298;28;19917;-69
2021/07/13 10:45:10;;;;;;;;;;;;;;;;;;5031471;28;19913;-69
2021/07/13 10:47:35;;;;;;;;;;;;;;;;;;5031364;28;19913;-68
2021/07/13 10:50:15;;;;;;;;;;;;;;;;;;5031368;28;20195;-68
2021/07/13 10:52:53;;;;;;;;;;;;;;;;;;5031135;28;20342;-69
2021/07/13 10:55:31;;;;;;;;;;;;;;;;;;5031465;28;19913;-69
2021/07/13 10:58:14;;;;;;;;;;;;;;;;;;5031169;28;20375;-68
2021/07/13 11:00:58;;;;;;;;;;;;;;;;;;5031230;28;20488;-68
2021/07/13 11:03:29;;;;;;;;;;;;;;;;;;5031122;28;20040;-68
2021/07/13 11:06:04;;;;;;;;;;;;;;;;;;5031102;28;19920;-68
2021/07/13 11:08:49;;;;;;;;;;;;;;;;;;5031119;28;19967;-69
2021/07/13 11:11:15;;;;;;;;;;;;;;;;;;5031134;28;19935;-68
2021/07/13 11:13:41;;;;;;;;;;;;;;;;;;5030940;28;20332;-69
2021/07/13 11:16:06;;;;;;;;;;;;;;;;;;5033195;28;20315;-69
2021/07/13 11:18:32;;;;;;;;;;;;;;;;;;5035058;28;19920;-69
2021/07/13 11:21:16;;;;;;;;;;;;;;;;;;5035120;28;19913;-69
2021/07/13 11:23:42;;;;;;;;;;;;;;;;;;5035079;28;19921;-68
2021/07/13 11:26:08;;;;;;;;;;;;;;;;;;5025937;28;19913;-69
2021/07/13 11:28:33;;;;;;;;;;;;;;;;;;5035281;28;19913;-69
2021/07/13 11:30:59;;;;;;;;;;;;;;;;;;5034482;28;19917;-68
2021/07/13 11:33:25;;;;;;;;;;;;;;;;;;5042001;28;20012;-68
2021/07/13 11:35:51;;;;;;;;;;;;;;;;;;5036850;28;20403;-68
2021/07/13 11:38:22;;;;;;;;;;;;;;;;;;5036256;28;19964;-67
2021/07/13 11:41:06;;;;;;;;;;;;;;;;;;5045032;28;19923;-67
2021/07/13 11:43:31;;;;;;;;;;;;;;;;;;5054137;28;19972;-68
2021/07/13 11:46:17;;;;;;;;;;;;;;;;;;5052702;28;19956;-66
2021/07/13 11:49:02;;;;;;;;;;;;;;;;;;5037894;28;19917;-68
2021/07/13 11:51:51;;;;;;;;;;;;;;;;;;5031134;28;19970;-68
2021/07/13 11:54:26;;;;;;;;;;;;;;;;;;5047297;28;19921;-67
2021/07/13 11:56:52;;;;;;;;;;;;;;;;;;5053281;28;19963;-70
2021/07/13 11:59:18;;;;;;;;;;;;;;;;;;5047246;28;19921;-69
2021/07/13 12:01:44;;;;;;;;;;;;;;;;;;5035079;28;20337;-69
2021/07/13 12:04:12;;;;;;;;;;;;;;;;;;5037158;28;19917;-69
2021/07/13 12:06:38;;;;;;;;;;;;;;;;;;5043695;28;19963;-70
2021/07/13 12:09:08;;;;;;;;;;;;;;;;;;5035479;28;19917;-69
2021/07/13 12:11:33;;;;;;;;;;;;;;;;;;5046401;28;19917;-69
2021/07/13 12:14:00;;;;;;;;;;;;;;;;;;5034078;28;19921;-70
2021/07/13 12:16:28;;;;;;;;;;;;;;;;;;5034277;28;19935;-68
2021/07/13 12:18:56;;;;;;;;;;;;;;;;;;5052563;28;19917;-70
2021/07/13 12:21:21;;;;;;;;;;;;;;;;;;5051949;28;19913;-69
2021/07/13 12:23:48;;;;;;;;;;;;;;;;;;5048558;28;20004;-69
2021/07/13 12:26:23;;;;;;;;;;;;;;;;;;5035240;28;19971;-70
2021/07/13 12:29:02;;;;;;;;;;;;;;;;;;5031329;28;19917;-70
2021/07/13 12:31:27;;;;;;;;;;;;;;;;;;5042275;28;20335;-68
2021/07/13 12:33:53;;;;;;;;;;;;;;;;;;5030896;28;20425;-66
2021/07/13 12:36:28;;;;;;;;;;;;;;;;;;5034336;28;19952;-68
2021/07/13 12:38:54;;;;;;;;;;;;;;;;;;5034305;28;20344;-69
2021/07/13 12:41:20;;;;;;;;;;;;;;;;;;5033691;28;19924;-68
2021/07/13 12:43:46;;;;;;;;;;;;;;;;;;5033991;28;20011;-68
2021/07/13 12:46:24;;;;;;;;;;;;;;;;;;5032929;28;20391;-68
2021/07/13 12:48:49;;;;;;;;;;;;;;;;;;5033188;28;19999;-68
2021/07/13 12:51:28;;;;;;;;;;;;;;;;;;5032583;28;20007;-66
2021/07/13 12:54:03;;;;;;;;;;;;;;;;;;5036479;28;19947;-68
2021/07/13 12:56:30;;;;;;;;;;;;;;;;;;5034217;28;19917;-69
2021/07/13 12:59:08;;;;;;;;;;;;;;;;;;5033068;28;19984;-68
2021/07/13 13:01:34;;;;;;;;;;;;;;;;;;5032245;28;19923;-70
2021/07/13 13:04:16;;;;;;;;;;;;;;;;;;5032698;28;20011;-70
2021/07/13 13:06:42;;;;;;;;;;;;;;;;;;5031464;28;19924;-69
2021/07/13 13:09:12;;;;;;;;;;;;;;;;;;5032838;28;19917;-68
2021/07/13 13:11:38;;;;;;;;;;;;;;;;;;5033180;28;19971;-69
2021/07/13 13:14:05;;;;;;;;;;;;;;;;;;5036273;28;19924;-65
2021/07/13 13:16:34;;;;;;;;;;;;;;;;;;5032672;28;20414;-63
2021/07/13 13:19:00;;;;;;;;;;;;;;;;;;5032782;28;19963;-67
2021/07/13 13:21:26;;;;;;;;;;;;;;;;;;5032547;28;19935;-66
2021/07/13 13:23:55;;;;;;;;;;;;;;;;;;5032508;28;19921;-67
2021/07/13 13:26:20;;;;;;;;;;;;;;;;;;5033101;28;19914;-67
2021/07/13 13:28:45;;;;;;;;;;;;;;;;;;5032509;28;20437;-67
2021/07/13 13:31:11;;;;;;;;;;;;;;;;;;5032559;28;20041;-67
2021/07/13 13:33:38;;;;;;;;;;;;;;;;;;5027847;28;20376;-66
2021/07/13 13:36:17;;;;;;;;;;;;;;;;;;5012864;28;19941;-67
2021/07/13 13:38:56;;;;;;;;;;;;;;;;;;5032211;28;19964;-63
2021/07/13 13:41:21;;;;;;;;;;;;;;;;;;5028403;28;19921;-64
2021/07/13 13:43:46;;;;;;;;;;;;;;;;;;5043360;28;20346;-64
2021/07/13 13:46:11;;;;;;;;;;;;;;;;;;5040454;28;20329;-65
2021/07/13 13:48:37;;;;;;;;;;;;;;;;;;5024338;28;20095;-66
2021/07/13 13:51:03;;;;;;;;;;;;;;;;;;5032087;28;19917;-63
2021/07/13 13:53:28;;;;;;;;;;;;;;;;;;5032706;28;20027;-65
2021/07/13 13:55:53;;;;;;;;;;;;;;;;;;5032840;28;20051;-64
2021/07/13 13:58:18;;;;;;;;;;;;;;;;;;5037060;28;20333;-65
2021/07/13 14:00:44;;;;;;;;;;;;;;;;;;5048368;28;19952;-65
2021/07/13 14:03:09;;;;;;;;;;;;;;;;;;5031989;28;19913;-66
2021/07/13 14:05:35;;;;;;;;;;;;;;;;;;5031436;28;20299;-67
2021/07/13 14:08:01;;;;;;;;;;;;;;;;;;5031052;28;19917;-64
2021/07/13 14:10:26;;;;;;;;;;;;;;;;;;5035752;28;19917;-66
2021/07/13 14:12:51;;;;;;;;;;;;;;;;;;5045502;28;19916;-66
2021/07/13 14:15:17;;;;;;;;;;;;;;;;;;5052020;28;19919;-67
2021/07/13 14:17:43;;;;;;;;;;;;;;;;;;5037660;28;19923;-65
2021/07/13 14:20:10;;;;;;;;;;;;;;;;;;5036617;28;19917;-62
2021/07/13 14:22:36;;;;;;;;;;;;;;;;;;5031780;28;19917;-62
2021/07/13 14:25:02;;;;;;;;;;;;;;;;;;5032095;28;20038;-66
2021/07/13 14:27:27;;;;;;;;;;;;;;;;;;5031383;28;19920;-65
2021/07/13 14:29:52;;;;;;;;;;;;;;;;;;5042966;28;19924;-66
2021/07/13 14:32:17;;;;;;;;;;;;;;;;;;5047410;28;19925;-65
2021/07/13 14:34:43;;;;;;;;;;;;;;;;;;5031513;28;20330;-66
2021/07/13 14:37:08;;;;;;;;;;;;;;;;;;5042679;28;19999;-66
2021/07/13 14:39:33;;;;;;;;;;;;;;;;;;5034705;28;19917;-63
2021/07/13 14:41:59;;;;;;;;;;;;;;;;;;5031774;28;19979;-65
2021/07/13 14:44:24;;;;;;;;;;;;;;;;;;5031629;28;19940;-62
2021/07/13 14:46:49;;;;;;;;;;;;;;;;;;5031452;28;20412;-66
2021/07/13 14:49:14;;;;;;;;;;;;;;;;;;5030933;28;19967;-63
2021/07/13 14:51:40;;;;;;;;;;;;;;;;;;5030902;28;20509;-66
2021/07/13 14:54:05;;;;;;;;;;;;;;;;;;5038869;28;19920;-65
2021/07/13 14:56:30;;;;;;;;;;;;;;;;;;5046874;28;19917;-64
2021/07/13 14:58:55;;;;;;;;;;;;;;;;;;5030821;28;19921;-65
2021/07/13 15:01:20;;;;;;;;;;;;;;;;;;5030549;28;19967;-65
2021/07/13 15:03:47;;;;;;;;;;;;;;;;;;5030763;28;20379;-65
2021/07/13 15:06:12;;;;;;;;;;;;;;;;;;5031030;28;19917;-63
2021/07/13 15:08:38;;;;;;;;;;;;;;;;;;5038336;28;19924;-66
2021/07/13 15:11:03;;;;;;;;;;;;;;;;;;5030319;28;19987;-63
2021/07/13 15:13:28;;;;;;;;;;;;;;;;;;5030569;28;19917;-65
2021/07/13 15:15:53;;;;;;;;;;;;;;;;;;5027711;28;20011;-64
2021/07/13 15:18:19;;;;;;;;;;;;;;;;;;5030369;28;19921;-65
2021/07/13 15:20:44;;;;;;;;;;;;;;;;;;5031042;28;20409;-65
2021/07/13 15:23:10;;;;;;;;;;;;;;;;;;5029215;28;20342;-65
2021/07/13 15:25:35;;;;;;;;;;;;;;;;;;5030162;28;19917;-65
2021/07/13 15:28:01;;;;;;;;;;;;;;;;;;5027482;28;19921;-63
2021/07/13 15:30:26;;;;;;;;;;;;;;;;;;5031381;28;19924;-65
2021/07/13 15:32:51;;;;;;;;;;;;;;;;;;5029105;28;19979;-65
2021/07/13 15:35:16;;;;;;;;;;;;;;;;;;5031115;28;20383;-66
2021/07/13 15:37:43;;;;;;;;;;;;;;;;;;5030370;28;19917;-64
2021/07/13 15:40:09;;;;;;;;;;;;;;;;;;5029445;28;19917;-64
2021/07/13 15:42:35;;;;;;;;;;;;;;;;;;5029556;28;20047;-66
2021/07/13 15:45:00;;;;;;;;;;;;;;;;;;5047362;28;19928;-63
2021/07/13 15:47:25;;;;;;;;;;;;;;;;;;5041392;28;19921;-65
2021/07/13 15:49:50;;;;;;;;;;;;;;;;;;5030804;28;19917;-65
2021/07/13 15:52:16;;;;;;;;;;;;;;;;;;5029771;28;20044;-66
2021/07/13 15:54:41;;;;;;;;;;;;;;;;;;5032065;28;19932;-65
2021/07/13 15:57:06;;;;;;;;;;;;;;;;;;5031752;28;19948;-63
2021/07/13 15:59:31;;;;;;;;;;;;;;;;;;5032472;28;19921;-68
2021/07/13 16:01:57;;;;;;;;;;;;;;;;;;5033446;28;19925;-63
2021/07/13 16:04:25;;;;;;;;;;;;;;;;;;5032912;28;19924;-66
2021/07/13 16:06:50;;;;;;;;;;;;;;;;;;5037294;28;19961;-66
2021/07/13 16:09:19;;;;;;;;;;;;;;;;;;5032532;28;19960;-64
2021/07/13 16:11:45;;;;;;;;;;;;;;;;;;5033341;28;19917;-64
2021/07/13 16:14:10;;;;;;;;;;;;;;;;;;5032795;28;19964;-64
2021/07/13 16:16:36;;;;;;;;;;;;;;;;;;5033353;28;19925;-65
2021/07/13 16:19:01;;;;;;;;;;;;;;;;;;5033111;28;20388;-63
2021/07/13 16:21:28;;;;;;;;;;;;;;;;;;5033644;28;19972;-66
2021/07/13 16:23:54;;;;;;;;;;;;;;;;;;5034183;28;19963;-66
2021/07/13 16:26:19;;;;;;;;;;;;;;;;;;5039862;28;19917;-63
2021/07/13 16:28:44;;;;;;;;;;;;;;;;;;5033405;28;19963;-66
2021/07/13 16:31:10;;;;;;;;;;;;;;;;;;5032746;28;20709;-65
2021/07/13 16:33:35;;;;;;;;;;;;;;;;;;5033592;28;19970;-66
2021/07/13 16:36:00;;;;;;;;;;;;;;;;;;5033051;28;20060;-66
2021/07/13 16:38:25;;;;;;;;;;;;;;;;;;5033428;28;20043;-66
2021/07/13 16:40:50;;;;;;;;;;;;;;;;;;5032767;28;19988;-66
2021/07/13 16:43:16;;;;;;;;;;;;;;;;;;5036540;28;20024;-67
2021/07/13 16:45:41;;;;;;;;;;;;;;;;;;5033027;28;20328;-67